Saugatuck, Connecticut
Current Conditions -  °F | °C
As of 1:52 PM on Thursday 23 Oct 2014 (Local Time) from KBDR Reporting Station
Light Rain Light Rain  
Wind Chill: 51°   Ceiling: 2300
Heat Index: 51°   Visibility: 10mi
Dew Point: 47°   Wind: 15mph
Humidity: 86%   Direction: 330°NNW
Pressure: 29.64"   Gusts: NA
Location:  41.1454°N, 73.3462°W
Report Text: KBDR 231752Z 33013KT 10SM -RA OVC023 11/08 A2964 RMK AO2 RAB05E27B46 SLP037 P0000 60000 T01060083 10133 20106 58004
Loading
Personal Weather Stations






























Interactive Weather Map
Tropical Storm Tracking
New forecast layout! Learn more

10-Day Weather Forecast

Advertisements
Track Severe Weather on mobile